sensor_id;sensor_type;location;lat;lon;timestamp;pressure;altitude;pressure_sealevel;temperature;humidity
13869;BME280;7004;48.206;16.402;2023-07-16T00:01:38;99158.66;;;26.55;70.22
13869;BME280;7004;48.206;16.402;2023-07-16T00:04:04;99161.59;;;26.54;69.85
13869;BME280;7004;48.206;16.402;2023-07-16T00:06:30;99163.63;;;26.65;69.49
13869;BME280;7004;48.206;16.402;2023-07-16T00:08:56;99165.31;;;26.60;70.08
13869;BME280;7004;48.206;16.402;2023-07-16T00:11:23;99169.75;;;26.27;71.38
13869;BME280;7004;48.206;16.402;2023-07-16T00:13:49;99156.13;;;26.61;70.12
13869;BME280;7004;48.206;16.402;2023-07-16T00:16:15;99165.59;;;26.25;71.88
13869;BME280;7004;48.206;16.402;2023-07-16T00:18:44;99159.91;;;26.60;69.87
13869;BME280;7004;48.206;16.402;2023-07-16T00:21:11;99157.75;;;26.10;72.08
13869;BME280;7004;48.206;16.402;2023-07-16T00:23:37;99161.22;;;26.24;72.05
13869;BME280;7004;48.206;16.402;2023-07-16T00:26:03;99161.81;;;26.39;71.10
13869;BME280;7004;48.206;16.402;2023-07-16T00:28:30;99171.84;;;26.25;72.16
13869;BME280;7004;48.206;16.402;2023-07-16T00:30:56;99163.94;;;26.82;70.13
13869;BME280;7004;48.206;16.402;2023-07-16T00:33:24;99164.00;;;26.75;69.85
13869;BME280;7004;48.206;16.402;2023-07-16T00:35:50;99167.63;;;26.43;71.16
13869;BME280;7004;48.206;16.402;2023-07-16T00:38:17;99174.75;;;26.30;71.88
13869;BME280;7004;48.206;16.402;2023-07-16T00:40:45;99177.44;;;26.30;71.55
13869;BME280;7004;48.206;16.402;2023-07-16T00:43:11;99167.84;;;26.54;70.50
13869;BME280;7004;48.206;16.402;2023-07-16T00:45:39;99171.06;;;26.05;72.44
13869;BME280;7004;48.206;16.402;2023-07-16T00:48:06;99172.88;;;26.31;72.46
13869;BME280;7004;48.206;16.402;2023-07-16T00:50:35;99175.22;;;26.21;72.78
13869;BME280;7004;48.206;16.402;2023-07-16T00:53:08;99165.06;;;25.89;73.88
13869;BME280;7004;48.206;16.402;2023-07-16T00:55:36;99167.44;;;26.44;71.85
13869;BME280;7004;48.206;16.402;2023-07-16T00:58:06;99167.03;;;26.27;72.94
13869;BME280;7004;48.206;16.402;2023-07-16T01:00:37;99154.81;;;25.98;73.48
13869;BME280;7004;48.206;16.402;2023-07-16T01:03:07;99157.97;;;25.88;74.25
13869;BME280;7004;48.206;16.402;2023-07-16T01:08:18;99160.66;;;25.75;74.82
13869;BME280;7004;48.206;16.402;2023-07-16T01:10:48;99160.22;;;25.78;75.52
13869;BME280;7004;48.206;16.402;2023-07-16T01:13:16;99159.22;;;25.92;74.45
13869;BME280;7004;48.206;16.402;2023-07-16T01:15:42;99152.34;;;25.77;74.85
13869;BME280;7004;48.206;16.402;2023-07-16T01:18:08;99151.91;;;25.60;75.91
13869;BME280;7004;48.206;16.402;2023-07-16T01:20:34;99151.28;;;25.98;74.31
13869;BME280;7004;48.206;16.402;2023-07-16T01:26:45;99146.31;;;25.81;74.83
13869;BME280;7004;48.206;16.402;2023-07-16T01:29:37;99148.34;;;26.12;74.59
13869;BME280;7004;48.206;16.402;2023-07-16T01:32:07;99152.09;;;26.11;73.74
13869;BME280;7004;48.206;16.402;2023-07-16T01:34:36;99143.22;;;26.56;72.65
13869;BME280;7004;48.206;16.402;2023-07-16T01:37:03;99142.84;;;26.32;73.22
13869;BME280;7004;48.206;16.402;2023-07-16T01:39:32;99147.34;;;25.67;76.62
13869;BME280;7004;48.206;16.402;2023-07-16T01:42:01;99138.38;;;25.93;74.81
13869;BME280;7004;48.206;16.402;2023-07-16T01:44:28;99140.47;;;25.71;76.33
13869;BME280;7004;48.206;16.402;2023-07-16T01:50:16;99141.31;;;25.85;74.98
13869;BME280;7004;48.206;16.402;2023-07-16T01:52:42;99136.09;;;25.57;76.16
13869;BME280;7004;48.206;16.402;2023-07-16T01:55:08;99141.28;;;25.65;75.31
13869;BME280;7004;48.206;16.402;2023-07-16T01:57:35;99142.53;;;25.76;75.49
13869;BME280;7004;48.206;16.402;2023-07-16T02:00:01;99145.69;;;25.66;75.88
13869;BME280;7004;48.206;16.402;2023-07-16T02:02:28;99145.69;;;25.59;76.40
13869;BME280;7004;48.206;16.402;2023-07-16T02:04:54;99152.53;;;26.08;74.53
13869;BME280;7004;48.206;16.402;2023-07-16T02:07:21;99160.25;;;25.58;76.38
13869;BME280;7004;48.206;16.402;2023-07-16T02:09:50;99152.94;;;25.65;76.23
13869;BME280;7004;48.206;16.402;2023-07-16T02:12:16;99154.00;;;25.44;77.53
13869;BME280;7004;48.206;16.402;2023-07-16T02:14:42;99162.09;;;25.31;77.48
13869;BME280;7004;48.206;16.402;2023-07-16T02:17:09;99164.38;;;25.34;77.52
13869;BME280;7004;48.206;16.402;2023-07-16T02:19:35;99166.19;;;25.14;78.34
13869;BME280;7004;48.206;16.402;2023-07-16T02:22:02;99175.13;;;25.07;79.18
13869;BME280;7004;48.206;16.402;2023-07-16T02:24:28;99178.16;;;25.66;76.88
13869;BME280;7004;48.206;16.402;2023-07-16T02:26:54;99179.19;;;25.52;78.27
13869;BME280;7004;48.206;16.402;2023-07-16T02:29:21;99178.53;;;25.36;77.81
13869;BME280;7004;48.206;16.402;2023-07-16T02:31:48;99179.41;;;25.57;76.30
13869;BME280;7004;48.206;16.402;2023-07-16T02:34:14;99184.41;;;25.66;76.78
13869;BME280;7004;48.206;16.402;2023-07-16T02:36:40;99182.72;;;25.65;76.31
13869;BME280;7004;48.206;16.402;2023-07-16T02:39:06;99179.78;;;25.47;77.56
13869;BME280;7004;48.206;16.402;2023-07-16T02:41:33;99180.84;;;25.53;77.31
13869;BME280;7004;48.206;16.402;2023-07-16T02:44:06;99183.56;;;25.86;76.59
13869;BME280;7004;48.206;16.402;2023-07-16T02:46:32;99182.50;;;25.40;78.51
13869;BME280;7004;48.206;16.402;2023-07-16T02:48:58;99189.78;;;25.46;77.82
13869;BME280;7004;48.206;16.402;2023-07-16T02:51:25;99188.97;;;25.59;77.07
13869;BME280;7004;48.206;16.402;2023-07-16T02:53:51;99199.78;;;25.46;77.96
13869;BME280;7004;48.206;16.402;2023-07-16T02:56:17;99200.81;;;25.38;79.39
13869;BME280;7004;48.206;16.402;2023-07-16T02:58:43;99211.22;;;25.55;77.21
13869;BME280;7004;48.206;16.402;2023-07-16T03:01:09;99206.44;;;24.75;82.84
13869;BME280;7004;48.206;16.402;2023-07-16T03:03:35;99208.97;;;24.90;81.26
13869;BME280;7004;48.206;16.402;2023-07-16T03:06:02;99209.22;;;24.19;85.97
13869;BME280;7004;48.206;16.402;2023-07-16T03:08:28;99209.97;;;24.76;84.02
13869;BME280;7004;48.206;16.402;2023-07-16T03:10:56;99212.81;;;24.26;85.13
13869;BME280;7004;48.206;16.402;2023-07-16T03:13:23;99214.22;;;24.22;86.20
13869;BME280;7004;48.206;16.402;2023-07-16T03:15:49;99224.63;;;23.97;87.31
13869;BME280;7004;48.206;16.402;2023-07-16T03:18:18;99224.19;;;23.93;87.46
13869;BME280;7004;48.206;16.402;2023-07-16T03:20:45;99225.09;;;24.01;87.33
13869;BME280;7004;48.206;16.402;2023-07-16T03:23:11;99229.25;;;24.03;87.77
13869;BME280;7004;48.206;16.402;2023-07-16T03:25:37;99225.66;;;24.52;84.22
13869;BME280;7004;48.206;16.402;2023-07-16T03:28:04;99232.28;;;24.91;82.53
13869;BME280;7004;48.206;16.402;2023-07-16T03:30:33;99229.34;;;24.93;81.08
13869;BME280;7004;48.206;16.402;2023-07-16T03:32:59;99232.56;;;24.33;84.92
13869;BME280;7004;48.206;16.402;2023-07-16T03:35:25;99237.63;;;24.43;85.10
13869;BME280;7004;48.206;16.402;2023-07-16T03:37:52;99236.41;;;24.46;85.00
13869;BME280;7004;48.206;16.402;2023-07-16T03:40:24;99239.19;;;24.59;84.61
13869;BME280;7004;48.206;16.402;2023-07-16T03:42:51;99242.38;;;24.41;85.22
13869;BME280;7004;48.206;16.402;2023-07-16T03:45:17;99237.53;;;24.30;85.52
13869;BME280;7004;48.206;16.402;2023-07-16T03:47:43;99239.22;;;24.31;86.21
13869;BME280;7004;48.206;16.402;2023-07-16T03:50:10;99251.50;;;24.05;88.25
13869;BME280;7004;48.206;16.402;2023-07-16T03:52:36;99255.13;;;24.19;87.45
13869;BME280;7004;48.206;16.402;2023-07-16T03:55:02;99264.38;;;24.38;86.47
13869;BME280;7004;48.206;16.402;2023-07-16T03:57:29;99274.03;;;24.19;87.66
13869;BME280;7004;48.206;16.402;2023-07-16T03:59:55;99274.25;;;23.96;90.88
13869;BME280;7004;48.206;16.402;2023-07-16T04:02:23;99282.47;;;24.37;87.64
13869;BME280;7004;48.206;16.402;2023-07-16T04:04:49;99294.34;;;24.43;87.20
13869;BME280;7004;48.206;16.402;2023-07-16T04:07:17;99288.94;;;24.43;87.42
13869;BME280;7004;48.206;16.402;2023-07-16T04:09:43;99290.31;;;24.32;88.20
13869;BME280;7004;48.206;16.402;2023-07-16T04:12:09;99292.88;;;24.40;88.16
13869;BME280;7004;48.206;16.402;2023-07-16T04:14:35;99292.69;;;24.42;88.37
13869;BME280;7004;48.206;16.402;2023-07-16T04:17:01;99286.22;;;24.71;87.34
13869;BME280;7004;48.206;16.402;2023-07-16T04:19:28;99283.22;;;24.53;87.99
13869;BME280;7004;48.206;16.402;2023-07-16T04:21:55;99284.44;;;24.50;88.91
13869;BME280;7004;48.206;16.402;2023-07-16T04:24:21;99297.88;;;24.72;87.07
13869;BME280;7004;48.206;16.402;2023-07-16T04:26:47;99300.63;;;24.78;86.74
13869;BME280;7004;48.206;16.402;2023-07-16T04:29:13;99318.16;;;24.54;90.13
13869;BME280;7004;48.206;16.402;2023-07-16T04:31:39;99319.91;;;24.69;88.90
13869;BME280;7004;48.206;16.402;2023-07-16T04:34:05;99320.47;;;24.64;89.71
13869;BME280;7004;48.206;16.402;2023-07-16T04:36:31;99315.84;;;24.86;88.38
13869;BME280;7004;48.206;16.402;2023-07-16T04:38:57;99320.91;;;24.96;87.53
13869;BME280;7004;48.206;16.402;2023-07-16T04:41:24;99331.63;;;25.17;86.46
13869;BME280;7004;48.206;16.402;2023-07-16T04:43:50;99337.69;;;25.19;86.88
13869;BME280;7004;48.206;16.402;2023-07-16T04:46:16;99353.59;;;25.49;84.56
13869;BME280;7004;48.206;16.402;2023-07-16T04:48:42;99393.28;;;25.00;86.15
13869;BME280;7004;48.206;16.402;2023-07-16T04:51:08;99426.00;;;25.47;84.86
13869;BME280;7004;48.206;16.402;2023-07-16T04:53:34;99402.28;;;25.07;86.72
13869;BME280;7004;48.206;16.402;2023-07-16T04:56:00;99397.00;;;25.27;85.66
13869;BME280;7004;48.206;16.402;2023-07-16T04:58:26;99403.84;;;25.23;82.36
13869;BME280;7004;48.206;16.402;2023-07-16T05:00:52;99398.78;;;25.55;81.96
13869;BME280;7004;48.206;16.402;2023-07-16T05:03:18;99417.56;;;25.63;82.47
13869;BME280;7004;48.206;16.402;2023-07-16T05:05:44;99441.38;;;25.81;82.19
13869;BME280;7004;48.206;16.402;2023-07-16T05:08:12;99456.34;;;25.77;80.73
13869;BME280;7004;48.206;16.402;2023-07-16T05:10:38;99460.78;;;25.91;79.90
13869;BME280;7004;48.206;16.402;2023-07-16T05:13:04;99463.81;;;26.23;76.97
13869;BME280;7004;48.206;16.402;2023-07-16T05:15:32;99465.81;;;26.01;76.94
13869;BME280;7004;48.206;16.402;2023-07-16T05:17:58;99470.59;;;25.99;77.65
13869;BME280;7004;48.206;16.402;2023-07-16T05:20:25;99474.38;;;26.11;76.59
13869;BME280;7004;48.206;16.402;2023-07-16T05:22:51;99481.91;;;26.23;76.69
13869;BME280;7004;48.206;16.402;2023-07-16T05:25:17;99482.28;;;26.00;76.12
13869;BME280;7004;48.206;16.402;2023-07-16T05:27:43;99494.84;;;25.72;77.11
13869;BME280;7004;48.206;16.402;2023-07-16T05:30:10;99483.19;;;26.40;74.68
13869;BME280;7004;48.206;16.402;2023-07-16T05:32:36;99497.06;;;26.04;76.20
13869;BME280;7004;48.206;16.402;2023-07-16T05:35:03;99499.81;;;26.17;73.35
13869;BME280;7004;48.206;16.402;2023-07-16T05:37:30;99508.50;;;25.99;74.61
13869;BME280;7004;48.206;16.402;2023-07-16T05:39:56;99508.31;;;26.01;72.42
13869;BME280;7004;48.206;16.402;2023-07-16T05:42:22;99518.00;;;25.82;72.15
13869;BME280;7004;48.206;16.402;2023-07-16T05:44:48;99519.94;;;26.56;70.53
13869;BME280;7004;48.206;16.402;2023-07-16T05:47:14;99524.75;;;26.54;69.43
13869;BME280;7004;48.206;16.402;2023-07-16T05:49:41;99524.91;;;26.46;69.56
13869;BME280;7004;48.206;16.402;2023-07-16T05:52:07;99523.97;;;26.12;69.03
13869;BME280;7004;48.206;16.402;2023-07-16T05:54:34;99518.66;;;26.45;68.27
13869;BME280;7004;48.206;16.402;2023-07-16T05:57:00;99513.88;;;26.47;67.40
13869;BME280;7004;48.206;16.402;2023-07-16T05:59:27;99517.78;;;26.38;67.06
13869;BME280;7004;48.206;16.402;2023-07-16T06:01:53;99509.00;;;26.23;66.07
13869;BME280;7004;48.206;16.402;2023-07-16T06:04:19;99526.44;;;27.08;64.61
13869;BME280;7004;48.206;16.402;2023-07-16T06:06:45;99522.69;;;26.63;63.72
13869;BME280;7004;48.206;16.402;2023-07-16T06:09:12;99538.72;;;26.57;62.70
13869;BME280;7004;48.206;16.402;2023-07-16T06:11:38;99532.31;;;26.98;63.08
13869;BME280;7004;48.206;16.402;2023-07-16T06:14:05;99532.78;;;26.21;63.37
13869;BME280;7004;48.206;16.402;2023-07-16T06:16:31;99543.31;;;26.57;62.86
13869;BME280;7004;48.206;16.402;2023-07-16T06:18:57;99537.28;;;27.48;61.04
13869;BME280;7004;48.206;16.402;2023-07-16T06:21:23;99543.38;;;27.30;61.02
13869;BME280;7004;48.206;16.402;2023-07-16T06:23:49;99546.09;;;27.30;62.44
13869;BME280;7004;48.206;16.402;2023-07-16T06:26:15;99555.84;;;26.98;61.24
13869;BME280;7004;48.206;16.402;2023-07-16T06:28:41;99549.44;;;27.32;60.39
13869;BME280;7004;48.206;16.402;2023-07-16T06:31:07;99551.72;;;27.22;60.93
13869;BME280;7004;48.206;16.402;2023-07-16T06:33:33;99559.00;;;26.75;62.87
13869;BME280;7004;48.206;16.402;2023-07-16T06:35:59;99560.66;;;27.16;62.02
13869;BME280;7004;48.206;16.402;2023-07-16T06:38:25;99557.13;;;27.09;62.16
13869;BME280;7004;48.206;16.402;2023-07-16T06:40:53;99559.44;;;26.98;62.98
13869;BME280;7004;48.206;16.402;2023-07-16T06:43:19;99568.81;;;27.09;62.69
13869;BME280;7004;48.206;16.402;2023-07-16T06:45:45;99570.06;;;27.07;63.13
13869;BME280;7004;48.206;16.402;2023-07-16T06:48:11;99573.38;;;27.62;60.85
13869;BME280;7004;48.206;16.402;2023-07-16T06:50:37;99573.13;;;27.97;60.63
13869;BME280;7004;48.206;16.402;2023-07-16T06:53:03;99563.13;;;27.71;61.27
13869;BME280;7004;48.206;16.402;2023-07-16T06:55:29;99573.13;;;28.42;59.05
13869;BME280;7004;48.206;16.402;2023-07-16T06:57:56;99572.72;;;27.73;61.34
13869;BME280;7004;48.206;16.402;2023-07-16T07:00:22;99572.94;;;28.37;60.14
13869;BME280;7004;48.206;16.402;2023-07-16T07:02:48;99565.22;;;28.34;59.85
13869;BME280;7004;48.206;16.402;2023-07-16T07:05:14;99567.25;;;28.51;59.65
13869;BME280;7004;48.206;16.402;2023-07-16T07:07:40;99573.91;;;28.10;60.00
13869;BME280;7004;48.206;16.402;2023-07-16T07:10:06;99574.38;;;27.94;60.94
13869;BME280;7004;48.206;16.402;2023-07-16T07:12:33;99571.81;;;28.58;58.96
13869;BME280;7004;48.206;16.402;2023-07-16T07:15:07;99575.28;;;28.33;58.77
13869;BME280;7004;48.206;16.402;2023-07-16T07:17:35;99576.31;;;28.77;57.13
13869;BME280;7004;48.206;16.402;2023-07-16T07:20:03;99578.41;;;28.75;56.49
13869;BME280;7004;48.206;16.402;2023-07-16T07:22:30;99565.56;;;29.39;54.69
13869;BME280;7004;48.206;16.402;2023-07-16T07:24:56;99574.97;;;30.05;52.40
13869;BME280;7004;48.206;16.402;2023-07-16T07:27:22;99573.66;;;30.08;51.45
13869;BME280;7004;48.206;16.402;2023-07-16T07:29:48;99581.03;;;29.45;52.42
13869;BME280;7004;48.206;16.402;2023-07-16T07:32:19;99580.91;;;29.33;52.06
13869;BME280;7004;48.206;16.402;2023-07-16T07:34:46;99574.22;;;29.11;52.84
13869;BME280;7004;48.206;16.402;2023-07-16T07:37:12;99577.78;;;29.55;51.95
13869;BME280;7004;48.206;16.402;2023-07-16T07:39:38;99573.28;;;29.86;49.63
13869;BME280;7004;48.206;16.402;2023-07-16T07:42:05;99580.28;;;30.79;48.25
13869;BME280;7004;48.206;16.402;2023-07-16T07:44:32;99579.03;;;30.14;47.94
13869;BME280;7004;48.206;16.402;2023-07-16T07:46:58;99570.94;;;30.08;47.17
13869;BME280;7004;48.206;16.402;2023-07-16T07:49:24;99581.03;;;30.25;47.56
13869;BME280;7004;48.206;16.402;2023-07-16T07:51:50;99578.63;;;30.47;45.73
13869;BME280;7004;48.206;16.402;2023-07-16T07:54:16;99570.03;;;29.95;45.72
13869;BME280;7004;48.206;16.402;2023-07-16T07:56:45;99598.03;;;31.00;44.51
13869;BME280;7004;48.206;16.402;2023-07-16T07:59:12;99587.78;;;31.84;42.47
13869;BME280;7004;48.206;16.402;2023-07-16T08:01:38;99587.84;;;30.95;43.58
13869;BME280;7004;48.206;16.402;2023-07-16T08:04:04;99586.06;;;32.59;40.92
13869;BME280;7004;48.206;16.402;2023-07-16T08:06:31;99605.72;;;31.92;41.20
13869;BME280;7004;48.206;16.402;2023-07-16T08:08:57;99592.78;;;31.64;40.98
13869;BME280;7004;48.206;16.402;2023-07-16T08:11:23;99597.50;;;31.21;41.20
13869;BME280;7004;48.206;16.402;2023-07-16T08:13:49;99586.38;;;31.46;40.28
13869;BME280;7004;48.206;16.402;2023-07-16T08:16:15;99585.81;;;31.02;41.26
13869;BME280;7004;48.206;16.402;2023-07-16T08:18:41;99589.69;;;32.07;39.30
13869;BME280;7004;48.206;16.402;2023-07-16T08:21:08;99588.66;;;33.28;38.36
13869;BME280;7004;48.206;16.402;2023-07-16T08:23:34;99588.59;;;32.94;39.00
13869;BME280;7004;48.206;16.402;2023-07-16T08:26:00;99594.88;;;33.06;37.81
13869;BME280;7004;48.206;16.402;2023-07-16T08:28:27;99597.66;;;32.95;37.59
13869;BME280;7004;48.206;16.402;2023-07-16T08:30:53;99599.19;;;32.05;38.52
13869;BME280;7004;48.206;16.402;2023-07-16T08:33:19;99604.81;;;33.13;37.32
13869;BME280;7004;48.206;16.402;2023-07-16T08:35:45;99613.31;;;33.11;37.53
13869;BME280;7004;48.206;16.402;2023-07-16T08:38:12;99607.03;;;31.42;39.58
13869;BME280;7004;48.206;16.402;2023-07-16T08:40:38;99612.50;;;32.41;38.65
13869;BME280;7004;48.206;16.402;2023-07-16T08:43:08;99609.59;;;32.89;37.57
13869;BME280;7004;48.206;16.402;2023-07-16T08:45:40;99608.22;;;31.82;39.62
13869;BME280;7004;48.206;16.402;2023-07-16T08:48:11;99605.03;;;31.96;39.86
13869;BME280;7004;48.206;16.402;2023-07-16T08:50:42;99612.72;;;32.80;39.17
13869;BME280;7004;48.206;16.402;2023-07-16T08:53:11;99626.81;;;32.72;39.18
13869;BME280;7004;48.206;16.402;2023-07-16T08:55:37;99616.41;;;32.17;39.35
13869;BME280;7004;48.206;16.402;2023-07-16T08:58:05;99616.34;;;32.40;39.68
13869;BME280;7004;48.206;16.402;2023-07-16T09:00:32;99623.34;;;32.48;38.61
13869;BME280;7004;48.206;16.402;2023-07-16T09:02:59;99630.78;;;33.10;38.25
13869;BME280;7004;48.206;16.402;2023-07-16T09:05:26;99625.16;;;33.34;37.34
13869;BME280;7004;48.206;16.402;2023-07-16T09:07:53;99631.47;;;33.85;37.27
13869;BME280;7004;48.206;16.402;2023-07-16T09:10:19;99621.44;;;33.74;36.85
13869;BME280;7004;48.206;16.402;2023-07-16T09:12:46;99632.38;;;33.23;37.10
13869;BME280;7004;48.206;16.402;2023-07-16T09:15:17;99626.19;;;33.61;36.65
13869;BME280;7004;48.206;16.402;2023-07-16T09:17:48;99627.84;;;33.28;36.73
13869;BME280;7004;48.206;16.402;2023-07-16T09:20:16;99629.25;;;33.48;37.83
13869;BME280;7004;48.206;16.402;2023-07-16T09:22:43;99628.00;;;33.22;36.75
13869;BME280;7004;48.206;16.402;2023-07-16T09:25:10;99643.19;;;33.46;36.44
13869;BME280;7004;48.206;16.402;2023-07-16T09:27:37;99633.00;;;33.42;36.09
13869;BME280;7004;48.206;16.402;2023-07-16T09:30:05;99633.81;;;33.42;36.32
13869;BME280;7004;48.206;16.402;2023-07-16T09:32:38;99640.69;;;33.28;36.63
13869;BME280;7004;48.206;16.402;2023-07-16T09:35:13;99644.38;;;32.76;36.90
13869;BME280;7004;48.206;16.402;2023-07-16T09:37:39;99635.31;;;33.50;36.28
13869;BME280;7004;48.206;16.402;2023-07-16T09:40:07;99634.75;;;33.65;36.68
13869;BME280;7004;48.206;16.402;2023-07-16T09:42:43;99639.13;;;33.32;36.73
13869;BME280;7004;48.206;16.402;2023-07-16T09:45:19;99631.31;;;33.75;36.03
13869;BME280;7004;48.206;16.402;2023-07-16T09:47:46;99628.47;;;34.25;35.35
13869;BME280;7004;48.206;16.402;2023-07-16T09:50:12;99641.72;;;33.56;36.16
13869;BME280;7004;48.206;16.402;2023-07-16T09:52:40;99639.75;;;35.00;34.58
13869;BME280;7004;48.206;16.402;2023-07-16T09:55:09;99638.09;;;35.26;35.55
13869;BME280;7004;48.206;16.402;2023-07-16T09:57:41;99624.56;;;33.82;35.42
13869;BME280;7004;48.206;16.402;2023-07-16T10:00:12;99637.88;;;33.40;36.11
13869;BME280;7004;48.206;16.402;2023-07-16T10:02:40;99627.38;;;34.26;35.06
13869;BME280;7004;48.206;16.402;2023-07-16T10:05:17;99618.44;;;34.36;34.76
13869;BME280;7004;48.206;16.402;2023-07-16T10:07:51;99622.31;;;33.96;35.06
13869;BME280;7004;48.206;16.402;2023-07-16T10:10:17;99615.22;;;35.20;34.02
13869;BME280;7004;48.206;16.402;2023-07-16T10:13:02;99620.19;;;33.81;35.77
13869;BME280;7004;48.206;16.402;2023-07-16T10:15:29;99610.09;;;34.26;35.10
13869;BME280;7004;48.206;16.402;2023-07-16T10:17:56;99620.50;;;34.24;35.26
13869;BME280;7004;48.206;16.402;2023-07-16T10:20:35;99619.63;;;33.62;35.86
13869;BME280;7004;48.206;16.402;2023-07-16T10:23:16;99624.56;;;34.65;35.10
13869;BME280;7004;48.206;16.402;2023-07-16T10:26:02;99619.13;;;34.04;34.91
13869;BME280;7004;48.206;16.402;2023-07-16T10:28:36;99618.63;;;35.33;34.90
13869;BME280;7004;48.206;16.402;2023-07-16T10:31:03;99628.41;;;34.03;35.25
13869;BME280;7004;48.206;16.402;2023-07-16T10:33:29;99622.91;;;33.81;34.93
13869;BME280;7004;48.206;16.402;2023-07-16T10:35:57;99625.47;;;34.27;34.61
13869;BME280;7004;48.206;16.402;2023-07-16T10:38:27;99618.44;;;35.12;34.16
13869;BME280;7004;48.206;16.402;2023-07-16T10:40:53;99620.19;;;34.64;33.19
13869;BME280;7004;48.206;16.402;2023-07-16T10:43:22;99611.97;;;34.47;34.85
13869;BME280;7004;48.206;16.402;2023-07-16T10:45:50;99615.84;;;34.73;34.31
13869;BME280;7004;48.206;16.402;2023-07-16T10:48:17;99617.88;;;35.42;33.47
13869;BME280;7004;48.206;16.402;2023-07-16T10:50:43;99626.16;;;34.88;33.80
13869;BME280;7004;48.206;16.402;2023-07-16T10:53:09;99615.88;;;35.33;33.52
13869;BME280;7004;48.206;16.402;2023-07-16T10:55:36;99615.78;;;35.55;33.82
13869;BME280;7004;48.206;16.402;2023-07-16T10:58:05;99610.19;;;36.45;31.86
13869;BME280;7004;48.206;16.402;2023-07-16T11:00:39;99615.06;;;34.51;33.38
13869;BME280;7004;48.206;16.402;2023-07-16T11:03:05;99612.03;;;36.14;31.92
13869;BME280;7004;48.206;16.402;2023-07-16T11:05:31;99609.38;;;35.81;32.15
13869;BME280;7004;48.206;16.402;2023-07-16T11:07:58;99611.19;;;36.08;32.23
13869;BME280;7004;48.206;16.402;2023-07-16T11:10:27;99610.00;;;34.92;33.58
13869;BME280;7004;48.206;16.402;2023-07-16T11:12:55;99603.69;;;35.56;32.07
13869;BME280;7004;48.206;16.402;2023-07-16T11:15:34;99610.16;;;35.39;32.31
13869;BME280;7004;48.206;16.402;2023-07-16T11:18:03;99616.28;;;36.52;31.00
13869;BME280;7004;48.206;16.402;2023-07-16T11:20:30;99609.53;;;35.64;31.15
13869;BME280;7004;48.206;16.402;2023-07-16T11:22:59;99615.31;;;36.11;32.29
13869;BME280;7004;48.206;16.402;2023-07-16T11:25:26;99611.66;;;36.58;31.05
13869;BME280;7004;48.206;16.402;2023-07-16T11:27:55;99616.22;;;34.33;34.07
13869;BME280;7004;48.206;16.402;2023-07-16T11:30:25;99609.00;;;34.27;34.49
13869;BME280;7004;48.206;16.402;2023-07-16T11:32:51;99603.31;;;35.79;32.86
13869;BME280;7004;48.206;16.402;2023-07-16T11:35:19;99611.25;;;35.38;33.45
13869;BME280;7004;48.206;16.402;2023-07-16T11:37:47;99606.19;;;36.88;31.12
13869;BME280;7004;48.206;16.402;2023-07-16T11:40:20;99606.50;;;36.92;31.09
13869;BME280;7004;48.206;16.402;2023-07-16T11:42:47;99604.28;;;34.44;33.04
13869;BME280;7004;48.206;16.402;2023-07-16T11:45:18;99613.03;;;34.90;33.69
13869;BME280;7004;48.206;16.402;2023-07-16T11:47:44;99604.63;;;34.53;33.27
13869;BME280;7004;48.206;16.402;2023-07-16T11:50:11;99601.41;;;35.42;33.13
13869;BME280;7004;48.206;16.402;2023-07-16T11:52:38;99603.28;;;36.32;32.11
13869;BME280;7004;48.206;16.402;2023-07-16T11:55:05;99600.16;;;35.28;33.42
13869;BME280;7004;48.206;16.402;2023-07-16T11:57:31;99594.97;;;36.12;32.02
13869;BME280;7004;48.206;16.402;2023-07-16T11:59:57;99604.59;;;37.13;31.31
13869;BME280;7004;48.206;16.402;2023-07-16T12:02:26;99591.56;;;35.94;31.72
13869;BME280;7004;48.206;16.402;2023-07-16T12:04:53;99590.88;;;35.72;31.93
13869;BME280;7004;48.206;16.402;2023-07-16T12:07:36;99601.41;;;36.38;31.19
13869;BME280;7004;48.206;16.402;2023-07-16T12:10:05;99588.25;;;36.55;30.78
13869;BME280;7004;48.206;16.402;2023-07-16T12:12:33;99587.16;;;35.93;31.49
13869;BME280;7004;48.206;16.402;2023-07-16T12:15:00;99590.84;;;37.08;30.70
13869;BME280;7004;48.206;16.402;2023-07-16T12:17:26;99589.56;;;36.42;31.58
13869;BME280;7004;48.206;16.402;2023-07-16T12:19:52;99588.28;;;37.73;29.94
13869;BME280;7004;48.206;16.402;2023-07-16T12:22:18;99592.03;;;35.43;32.29
13869;BME280;7004;48.206;16.402;2023-07-16T12:24:46;99585.94;;;35.69;32.20
13869;BME280;7004;48.206;16.402;2023-07-16T12:27:13;99587.81;;;35.31;33.10
13869;BME280;7004;48.206;16.402;2023-07-16T12:29:40;99589.84;;;36.41;31.85
13869;BME280;7004;48.206;16.402;2023-07-16T12:32:06;99584.63;;;35.81;32.78
13869;BME280;7004;48.206;16.402;2023-07-16T12:34:34;99588.00;;;36.72;31.95
13869;BME280;7004;48.206;16.402;2023-07-16T12:37:00;99586.78;;;36.32;32.11
13869;BME280;7004;48.206;16.402;2023-07-16T12:39:26;99583.16;;;36.16;31.47
13869;BME280;7004;48.206;16.402;2023-07-16T12:41:52;99582.56;;;37.23;30.09
13869;BME280;7004;48.206;16.402;2023-07-16T12:44:18;99588.25;;;35.50;32.17
13869;BME280;7004;48.206;16.402;2023-07-16T12:46:44;99582.84;;;36.07;31.91
13869;BME280;7004;48.206;16.402;2023-07-16T12:49:10;99581.22;;;35.64;31.71
13869;BME280;7004;48.206;16.402;2023-07-16T12:51:36;99579.75;;;35.56;31.64
13869;BME280;7004;48.206;16.402;2023-07-16T12:54:02;99586.50;;;36.34;31.95
13869;BME280;7004;48.206;16.402;2023-07-16T12:56:29;99583.03;;;36.59;31.26
13869;BME280;7004;48.206;16.402;2023-07-16T12:58:56;99588.91;;;37.08;29.97
13869;BME280;7004;48.206;16.402;2023-07-16T13:01:22;99587.72;;;35.53;31.63
13869;BME280;7004;48.206;16.402;2023-07-16T13:03:49;99587.19;;;36.03;32.32
13869;BME280;7004;48.206;16.402;2023-07-16T13:06:15;99590.78;;;34.92;33.07
13869;BME280;7004;48.206;16.402;2023-07-16T13:08:41;99592.78;;;35.29;33.25
13869;BME280;7004;48.206;16.402;2023-07-16T13:11:08;99577.97;;;34.70;34.04